createdAt,value
2022-11-08T00:00:21.210Z,91.90
2022-11-08T00:01:21.190Z,91.90
2022-11-08T00:02:21.349Z,91.80
2022-11-08T00:03:21.306Z,91.94
2022-11-08T00:04:21.159Z,91.74
2022-11-08T00:05:21.159Z,91.74
2022-11-08T00:06:21.127Z,91.74
2022-11-08T00:07:21.117Z,92.04
2022-11-08T00:08:21.200Z,92.14
2022-11-08T00:09:21.098Z,92.35
2022-11-08T00:10:21.068Z,92.55
2022-11-08T00:11:21.069Z,92.60
2022-11-08T00:12:21.060Z,92.60
2022-11-08T00:13:21.030Z,92.80
2022-11-08T00:14:21.027Z,92.91
2022-11-08T00:15:20.997Z,93.01
2022-11-08T00:16:21.010Z,93.12
2022-11-08T00:17:20.988Z,93.12
2022-11-08T00:18:20.981Z,93.16
2022-11-08T00:19:20.966Z,93.05
2022-11-08T00:20:20.935Z,93.05
2022-11-08T00:21:20.926Z,92.95
2022-11-08T00:22:20.947Z,92.85
2022-11-08T00:23:20.897Z,92.74
2022-11-08T00:24:20.885Z,92.64
2022-11-08T00:25:20.886Z,92.79
2022-11-08T00:26:20.854Z,92.69
2022-11-08T00:27:20.848Z,92.38
2022-11-08T00:28:20.851Z,92.48
2022-11-08T00:29:20.822Z,92.58
2022-11-08T00:30:20.817Z,92.17
2022-11-08T00:31:20.786Z,92.27
2022-11-08T00:32:20.784Z,92.48
2022-11-08T00:33:20.753Z,92.63
2022-11-08T00:34:20.745Z,92.63
2022-11-08T00:35:20.739Z,92.52
2022-11-08T00:36:20.733Z,93.44
2022-11-08T00:37:20.714Z,93.86
2022-11-08T00:38:20.906Z,94.07
2022-11-08T00:39:20.676Z,93.86
2022-11-08T00:40:20.664Z,94.07
2022-11-08T00:41:20.653Z,94.07
2022-11-08T00:42:20.654Z,94.07
2022-11-08T00:43:20.632Z,93.86
2022-11-08T00:44:20.643Z,93.76
2022-11-08T00:45:20.595Z,93.86
2022-11-08T00:46:20.594Z,94.07
2022-11-08T00:47:20.583Z,94.07
2022-11-08T00:48:20.921Z,94.27
2022-11-08T00:49:20.552Z,94.68
2022-11-08T00:50:20.542Z,94.68
2022-11-08T00:51:20.522Z,94.62
2022-11-08T00:52:20.522Z,94.52
2022-11-08T00:53:20.491Z,94.52
2022-11-08T00:54:20.483Z,94.52
2022-11-08T00:55:20.464Z,94.52
2022-11-08T00:56:20.451Z,94.42
2022-11-08T00:57:22.299Z,94.21
2022-11-08T00:58:26.972Z,94.21
2022-11-08T00:59:21.403Z,93.90
2022-11-08T01:00:20.411Z,93.90
2022-11-08T01:01:20.464Z,93.95
2022-11-08T01:02:20.422Z,93.84
2022-11-08T01:03:20.351Z,93.95
2022-11-08T01:04:20.342Z,93.74
2022-11-08T01:05:20.332Z,93.95
2022-11-08T01:06:20.336Z,93.84
2022-11-08T01:07:20.312Z,93.74
2022-11-08T01:08:20.693Z,93.64
2022-11-08T01:09:20.283Z,93.74
2022-11-08T01:10:20.279Z,93.74
2022-11-08T01:11:20.246Z,94.46
2022-11-08T01:12:20.260Z,94.77
2022-11-08T01:13:20.220Z,95.08
2022-11-08T01:14:20.221Z,95.08
2022-11-08T01:15:20.299Z,95.08
2022-11-08T01:16:20.192Z,94.98
2022-11-08T01:17:20.176Z,94.87
2022-11-08T01:18:20.747Z,94.98
2022-11-08T01:19:20.147Z,94.98
2022-11-08T01:20:20.139Z,94.98
2022-11-08T01:21:20.119Z,94.87
2022-11-08T01:22:20.112Z,94.77
2022-11-08T01:23:20.078Z,94.56
2022-11-08T01:24:20.088Z,94.56
2022-11-08T01:25:20.059Z,94.51
2022-11-08T01:26:20.068Z,94.40
2022-11-08T01:27:20.059Z,94.51
2022-11-08T01:28:20.400Z,94.60
2022-11-08T01:29:20.007Z,94.81
2022-11-08T01:30:20.019Z,94.81
2022-11-08T01:31:19.987Z,94.81
2022-11-08T01:32:19.988Z,94.81
2022-11-08T01:33:19.966Z,94.71
2022-11-08T01:34:19.949Z,94.51
2022-11-08T01:35:19.937Z,95.02
2022-11-08T01:36:19.936Z,95.23
2022-11-08T01:37:19.928Z,95.33
2022-11-08T01:38:20.379Z,95.23
2022-11-08T01:39:19.878Z,95.18
2022-11-08T01:40:19.867Z,95.28
2022-11-08T01:41:19.848Z,95.80
2022-11-08T01:42:19.850Z,96.21
2022-11-08T01:43:19.838Z,96.21
2022-11-08T01:44:19.809Z,96.11
2022-11-08T01:45:19.796Z,96.21
2022-11-08T01:46:19.789Z,96.11
2022-11-08T01:47:19.777Z,96.21
2022-11-08T01:48:20.150Z,96.21
2022-11-08T01:49:19.746Z,96.37
2022-11-08T01:50:19.726Z,96.58
2022-11-08T01:51:19.736Z,96.68
2022-11-08T01:52:19.717Z,96.68
2022-11-08T01:53:19.695Z,96.58
2022-11-08T01:54:19.685Z,96.68
2022-11-08T01:55:19.655Z,96.68
2022-11-08T01:56:19.656Z,96.68
2022-11-08T01:57:19.644Z,96.68
2022-11-08T01:58:19.915Z,96.58
2022-11-08T01:59:19.604Z,96.47
2022-11-08T02:00:19.623Z,96.27
2022-11-08T02:01:19.609Z,96.37
2022-11-08T02:02:19.648Z,96.37
2022-11-08T02:03:19.564Z,96.37
2022-11-08T02:04:19.545Z,96.37
2022-11-08T02:05:19.533Z,96.37
2022-11-08T02:06:19.523Z,96.47
2022-11-08T02:07:19.526Z,96.47
2022-11-08T02:08:19.809Z,96.47
2022-11-08T02:09:19.487Z,96.47
2022-11-08T02:10:19.463Z,96.78
2022-11-08T02:11:19.551Z,96.89
2022-11-08T02:12:19.472Z,96.89
2022-11-08T02:13:19.431Z,96.89
2022-11-08T02:14:19.413Z,96.68
2022-11-08T02:15:20.163Z,96.47
2022-11-08T02:16:19.402Z,96.37
2022-11-08T02:17:19.378Z,96.37
2022-11-08T02:18:19.706Z,96.37
2022-11-08T02:19:19.382Z,96.37
2022-11-08T02:20:19.322Z,96.47
2022-11-08T02:21:19.321Z,96.58
2022-11-08T02:22:19.321Z,96.58
2022-11-08T02:23:19.290Z,96.58
2022-11-08T02:24:19.275Z,96.58
2022-11-08T02:25:19.271Z,96.37
2022-11-08T02:26:19.284Z,96.27
2022-11-08T02:27:19.253Z,96.17
2022-11-08T02:28:19.433Z,96.27
2022-11-08T02:29:19.209Z,96.27
2022-11-08T02:30:19.190Z,96.27
2022-11-08T02:31:19.190Z,96.06
2022-11-08T02:32:19.191Z,95.96
2022-11-08T02:33:19.162Z,96.06
2022-11-08T02:34:19.140Z,96.17
2022-11-08T02:35:19.131Z,96.17
2022-11-08T02:36:19.110Z,96.17
2022-11-08T02:37:19.130Z,96.17
2022-11-08T02:38:19.563Z,96.06
2022-11-08T02:39:19.079Z,96.17
2022-11-08T02:40:19.070Z,96.27
2022-11-08T02:41:19.078Z,96.21
2022-11-08T02:42:19.031Z,96.21
2022-11-08T02:43:19.036Z,96.21
2022-11-08T02:44:19.008Z,96.21
2022-11-08T02:45:19.006Z,96.21
2022-11-08T02:46:19.032Z,96.21
2022-11-08T02:47:18.980Z,96.11
2022-11-08T02:48:19.476Z,95.90
2022-11-08T02:49:18.945Z,95.80
2022-11-08T02:50:18.937Z,95.64
2022-11-08T02:51:18.959Z,95.64
2022-11-08T02:52:18.896Z,95.43
2022-11-08T02:53:18.917Z,95.23
2022-11-08T02:54:18.874Z,95.02
2022-11-08T02:55:18.865Z,94.96
2022-11-08T02:56:18.868Z,94.96
2022-11-08T02:57:18.846Z,94.85
2022-11-08T02:58:19.044Z,94.76
2022-11-08T02:59:18.806Z,94.55
2022-11-08T03:00:18.795Z,94.45
2022-11-08T03:01:18.867Z,94.34
2022-11-08T03:02:18.947Z,94.24
2022-11-08T03:03:18.775Z,94.08
2022-11-08T03:04:18.762Z,93.98
2022-11-08T03:05:18.726Z,93.87
2022-11-08T03:06:18.724Z,93.87
2022-11-08T03:07:24.530Z,93.87
2022-11-08T03:08:20.047Z,93.98
2022-11-08T03:09:18.677Z,93.87
2022-11-08T03:10:18.662Z,93.87
2022-11-08T03:11:18.654Z,93.77
2022-11-08T03:12:18.636Z,93.66
2022-11-08T03:13:18.624Z,93.77
2022-11-08T03:14:18.605Z,93.87
2022-11-08T03:15:18.623Z,93.98
2022-11-08T03:16:18.573Z,94.18
2022-11-08T03:17:18.599Z,94.49
2022-11-08T03:18:18.971Z,94.70
2022-11-08T03:19:18.549Z,94.95
2022-11-08T03:20:18.529Z,95.05
2022-11-08T03:21:18.528Z,95.05
2022-11-08T03:22:18.499Z,95.05
2022-11-08T03:23:18.498Z,94.95
2022-11-08T03:24:18.472Z,94.95
2022-11-08T03:25:18.513Z,94.84
2022-11-08T03:26:18.441Z,94.64
2022-11-08T03:27:18.432Z,94.64
2022-11-08T03:28:22.739Z,94.57
2022-11-08T03:29:18.434Z,94.57
2022-11-08T03:30:18.402Z,94.57
2022-11-08T03:31:18.383Z,94.68
2022-11-08T03:32:18.361Z,94.68
2022-11-08T03:33:18.352Z,94.68
2022-11-08T03:34:18.369Z,94.78
2022-11-08T03:35:18.340Z,94.78
2022-11-08T03:36:18.321Z,94.78
2022-11-08T03:37:18.303Z,94.82
2022-11-08T03:38:18.589Z,94.82
2022-11-08T03:39:18.284Z,94.82
2022-11-08T03:40:18.279Z,94.82
2022-11-08T03:41:18.249Z,94.72
2022-11-08T03:42:18.239Z,94.82
2022-11-08T03:43:18.225Z,94.93
2022-11-08T03:44:18.230Z,95.14
2022-11-08T03:45:18.199Z,95.14
2022-11-08T03:46:18.178Z,94.93
2022-11-08T03:47:18.204Z,94.82
2022-11-08T03:48:18.560Z,94.72
2022-11-08T03:49:18.148Z,94.52
2022-11-08T03:50:18.129Z,94.42
2022-11-08T03:51:18.108Z,94.31
2022-11-08T03:52:18.101Z,94.10
2022-11-08T03:53:18.091Z,93.90
2022-11-08T03:54:18.076Z,94.10
2022-11-08T03:55:18.078Z,94.21
2022-11-08T03:56:18.050Z,94.21
2022-11-08T03:57:18.039Z,94.31
2022-11-08T03:58:18.328Z,94.42
2022-11-08T03:59:18.007Z,94.52
2022-11-08T04:00:18.016Z,94.62
2022-11-08T04:01:18.019Z,94.62
2022-11-08T04:02:18.103Z,94.62
2022-11-08T04:03:17.978Z,94.62
2022-11-08T04:04:17.950Z,94.62
2022-11-08T04:05:17.934Z,94.62
2022-11-08T04:06:17.917Z,94.82
2022-11-08T04:07:17.906Z,94.82
2022-11-08T04:08:18.090Z,94.93
2022-11-08T04:09:21.444Z,94.82
2022-11-08T04:10:17.871Z,94.72
2022-11-08T04:11:17.844Z,94.72
2022-11-08T04:12:17.851Z,94.72
2022-11-08T04:13:21.507Z,94.82
2022-11-08T04:14:17.824Z,94.72
2022-11-08T04:15:17.813Z,94.62
2022-11-08T04:16:18.115Z,94.62
2022-11-08T04:17:17.773Z,94.52
2022-11-08T04:18:18.244Z,94.52
2022-11-08T04:19:17.754Z,94.56
2022-11-08T04:20:17.743Z,94.56
2022-11-08T04:21:17.713Z,94.46
2022-11-08T04:22:17.705Z,94.46
2022-11-08T04:23:17.684Z,94.46
2022-11-08T04:24:17.679Z,94.56
2022-11-08T04:25:17.682Z,94.56
2022-11-08T04:26:17.643Z,94.67
2022-11-08T04:27:17.645Z,94.67
2022-11-08T04:28:17.894Z,94.56
2022-11-08T04:29:17.612Z,94.46
2022-11-08T04:30:17.604Z,94.46
2022-11-08T04:31:17.588Z,94.35
2022-11-08T04:32:17.572Z,94.35
2022-11-08T04:33:17.571Z,94.25
2022-11-08T04:34:17.552Z,94.50
2022-11-08T04:35:17.534Z,94.67
2022-11-08T04:36:17.511Z,94.81
2022-11-08T04:37:17.506Z,94.81
2022-11-08T04:38:17.825Z,94.60
2022-11-08T04:39:17.484Z,94.50
2022-11-08T04:40:17.470Z,94.50
2022-11-08T04:41:17.461Z,94.50
2022-11-08T04:42:17.431Z,94.50
2022-11-08T04:43:17.421Z,94.50
2022-11-08T04:44:17.429Z,94.29
2022-11-08T04:45:17.426Z,94.29
2022-11-08T04:46:17.381Z,94.50
2022-11-08T04:47:17.371Z,94.60
2022-11-08T04:48:17.543Z,94.50
2022-11-08T04:49:17.340Z,94.60
2022-11-08T04:50:17.361Z,94.60
2022-11-08T04:51:17.330Z,94.60
2022-11-08T04:52:17.299Z,94.50
2022-11-08T04:53:17.301Z,94.60
2022-11-08T04:54:17.275Z,94.60
2022-11-08T04:55:17.279Z,94.50
2022-11-08T04:56:17.241Z,94.71
2022-11-08T04:57:17.253Z,94.92
2022-11-08T04:58:17.486Z,94.92
2022-11-08T04:59:17.229Z,95.02
2022-11-08T05:00:17.208Z,95.53
2022-11-08T05:01:17.244Z,95.74
2022-11-08T05:02:17.314Z,95.74
2022-11-08T05:03:17.169Z,95.84
2022-11-08T05:04:17.154Z,95.95
2022-11-08T05:05:17.146Z,95.84
2022-11-08T05:06:17.124Z,95.74
2022-11-08T05:07:17.107Z,95.53
2022-11-08T05:08:17.340Z,95.64
2022-11-08T05:09:17.099Z,95.95
2022-11-08T05:10:17.075Z,96.26
2022-11-08T05:11:17.089Z,96.26
2022-11-08T05:12:17.047Z,96.15
2022-11-08T05:13:17.036Z,95.95
2022-11-08T05:14:17.006Z,95.84
2022-11-08T05:15:17.007Z,95.74
2022-11-08T05:16:16.997Z,95.64
2022-11-08T05:17:16.986Z,95.64
2022-11-08T05:18:17.182Z,95.53
2022-11-08T05:19:16.967Z,95.53
2022-11-08T05:20:16.935Z,95.53
2022-11-08T05:21:16.925Z,95.53
2022-11-08T05:22:16.917Z,95.43
2022-11-08T05:23:16.895Z,95.43
2022-11-08T05:24:16.887Z,95.32
2022-11-08T05:25:16.895Z,95.22
2022-11-08T05:26:16.862Z,95.22
2022-11-08T05:27:16.834Z,95.53
2022-11-08T05:28:17.270Z,95.84
2022-11-08T05:29:16.820Z,96.05
2022-11-08T05:30:16.823Z,96.05
2022-11-08T05:31:16.798Z,96.05
2022-11-08T05:32:16.775Z,96.15
2022-11-08T05:33:16.781Z,96.26
2022-11-08T05:34:16.743Z,96.36
2022-11-08T05:35:16.763Z,96.36
2022-11-08T05:36:16.724Z,96.47
2022-11-08T05:37:16.715Z,96.56
2022-11-08T05:38:16.991Z,96.56
2022-11-08T05:39:16.692Z,96.56
2022-11-08T05:40:16.672Z,96.47
2022-11-08T05:41:16.672Z,96.47
2022-11-08T05:42:16.645Z,96.36
2022-11-08T05:43:16.919Z,96.15
2022-11-08T05:44:16.617Z,95.95
2022-11-08T05:45:16.614Z,95.74
2022-11-08T05:46:16.582Z,95.64
2022-11-08T05:47:16.591Z,95.53
2022-11-08T05:48:17.001Z,95.64
2022-11-08T05:49:16.560Z,95.64
2022-11-08T05:50:19.372Z,95.95
2022-11-08T05:51:16.522Z,96.15
2022-11-08T05:52:16.514Z,96.26
2022-11-08T05:53:16.850Z,96.26
2022-11-08T05:54:16.489Z,96.26
2022-11-08T05:55:16.480Z,96.26
2022-11-08T05:56:16.473Z,96.15
2022-11-08T05:57:21.138Z,96.15
2022-11-08T05:58:17.440Z,96.15
2022-11-08T05:59:16.430Z,95.84
2022-11-08T06:00:16.425Z,95.74
2022-11-08T06:01:16.399Z,95.84
2022-11-08T06:02:16.473Z,95.64
2022-11-08T06:03:20.912Z,95.53
2022-11-08T06:04:17.360Z,95.22
2022-11-08T06:05:16.338Z,95.12
2022-11-08T06:06:16.330Z,95.12
2022-11-08T06:07:16.338Z,95.22
2022-11-08T06:08:16.302Z,95.95
2022-11-08T06:09:16.301Z,96.36
2022-11-08T06:10:16.277Z,96.47
2022-11-08T06:11:16.269Z,96.67
2022-11-08T06:12:16.250Z,96.83
2022-11-08T06:13:16.259Z,97.25
2022-11-08T06:14:16.237Z,97.55
2022-11-08T06:15:16.208Z,97.86
2022-11-08T06:16:16.208Z,98.07
2022-11-08T06:17:16.188Z,98.28
2022-11-08T06:18:16.174Z,98.23
2022-11-08T06:19:16.198Z,98.44
2022-11-08T06:20:16.157Z,98.54
2022-11-08T06:21:16.125Z,98.65
2022-11-08T06:22:16.153Z,98.65
2022-11-08T06:23:16.390Z,98.85
2022-11-08T06:24:16.114Z,99.06
2022-11-08T06:25:16.089Z,99.16
2022-11-08T06:26:16.086Z,99.16
2022-11-08T06:27:16.046Z,99.16
2022-11-08T06:28:16.037Z,99.26
2022-11-08T06:29:16.044Z,99.37
2022-11-08T06:30:16.019Z,99.37
2022-11-08T06:31:16.000Z,99.26
2022-11-08T06:32:16.007Z,99.26
2022-11-08T06:33:16.343Z,99.37
2022-11-08T06:34:15.973Z,99.37
2022-11-08T06:35:15.944Z,99.37
2022-11-08T06:36:15.943Z,99.37
2022-11-08T06:37:15.911Z,99.37
2022-11-08T06:38:15.921Z,99.37
2022-11-08T06:39:15.939Z,99.22
2022-11-08T06:40:15.891Z,99.22
2022-11-08T06:41:15.862Z,99.22
2022-11-08T06:42:15.857Z,99.22
2022-11-08T06:43:19.626Z,99.11
2022-11-08T06:44:15.839Z,99.01
2022-11-08T06:45:15.821Z,98.91
2022-11-08T06:46:15.802Z,98.80
2022-11-08T06:47:15.784Z,98.80
2022-11-08T06:48:15.787Z,98.80
2022-11-08T06:49:15.770Z,98.70
2022-11-08T06:50:15.742Z,98.80
2022-11-08T06:51:15.750Z,98.80
2022-11-08T06:52:15.722Z,98.80
2022-11-08T06:53:16.096Z,98.80
2022-11-08T06:54:17.922Z,98.91
2022-11-08T06:55:15.672Z,99.07
2022-11-08T06:56:15.698Z,99.27
2022-11-08T06:57:15.661Z,99.27
2022-11-08T06:58:15.642Z,99.27
2022-11-08T06:59:15.663Z,99.38
2022-11-08T07:00:15.616Z,99.69
2022-11-08T07:01:15.657Z,99.85
2022-11-08T07:02:15.682Z,99.85
2022-11-08T07:03:15.851Z,99.85
2022-11-08T07:04:15.570Z,99.74
2022-11-08T07:05:15.582Z,99.85
2022-11-08T07:06:15.540Z,99.99
2022-11-08T07:07:15.520Z,99.99
2022-11-08T07:08:20.709Z,99.99
2022-11-08T07:09:16.519Z,99.99
2022-11-08T07:10:15.489Z,99.99
2022-11-08T07:11:15.479Z,99.99
2022-11-08T07:12:15.458Z,99.99
2022-11-08T07:13:15.790Z,99.99
2022-11-08T07:14:15.439Z,99.99
2022-11-08T07:15:15.424Z,99.99
2022-11-08T07:16:15.397Z,99.99
2022-11-08T07:17:15.385Z,99.99
2022-11-08T07:18:15.400Z,99.77
2022-11-08T07:19:15.376Z,99.66
2022-11-08T07:20:15.348Z,99.56
2022-11-08T07:21:15.354Z,99.56
2022-11-08T07:22:15.318Z,99.46
2022-11-08T07:23:15.326Z,99.35
2022-11-08T07:24:15.322Z,99.25
2022-11-08T07:25:15.294Z,99.10
2022-11-08T07:26:15.267Z,99.00
2022-11-08T07:27:15.261Z,98.90
2022-11-08T07:28:15.237Z,98.79
2022-11-08T07:29:16.270Z,98.79
2022-11-08T07:30:15.233Z,98.54
2022-11-08T07:31:15.196Z,98.24
2022-11-08T07:32:15.197Z,98.03
2022-11-08T07:33:15.187Z,97.82
2022-11-08T07:34:15.176Z,97.67
2022-11-08T07:35:15.146Z,97.37
2022-11-08T07:36:15.177Z,97.16
2022-11-08T07:37:15.115Z,97.16
2022-11-08T07:38:15.112Z,97.06
2022-11-08T07:39:15.095Z,96.81
2022-11-08T07:40:15.074Z,96.70
2022-11-08T07:41:15.067Z,96.60
2022-11-08T07:42:15.046Z,96.40
2022-11-08T07:43:15.054Z,96.15
2022-11-08T07:44:15.044Z,95.84
2022-11-08T07:45:15.029Z,95.59
2022-11-08T07:46:15.005Z,95.39
2022-11-08T07:47:14.982Z,95.18
2022-11-08T07:48:14.974Z,95.07
2022-11-08T07:49:14.956Z,94.73
2022-11-08T07:50:17.800Z,94.27
2022-11-08T07:51:14.945Z,93.96
2022-11-08T07:52:14.914Z,93.76
2022-11-08T07:53:15.142Z,92.69
2022-11-08T07:54:14.917Z,92.69
2022-11-08T07:55:14.873Z,92.59
2022-11-08T07:56:14.865Z,92.24
2022-11-08T07:57:14.857Z,91.99
2022-11-08T07:58:14.863Z,91.69
2022-11-08T07:59:14.985Z,91.03
2022-11-08T08:00:14.811Z,90.06
2022-11-08T08:01:14.809Z,89.56
2022-11-08T08:02:14.886Z,89.20
2022-11-08T08:03:14.901Z,89.00
2022-11-08T08:04:14.763Z,88.59
2022-11-08T08:05:14.749Z,87.73
2022-11-08T08:06:14.746Z,87.04
2022-11-08T08:07:14.712Z,86.18
2022-11-08T08:08:14.720Z,85.53
2022-11-08T08:09:14.688Z,84.74
2022-11-08T08:10:14.692Z,82.87
2022-11-08T08:11:14.662Z,82.42
2022-11-08T08:12:14.662Z,81.46
2022-11-08T08:13:14.746Z,80.72
2022-11-08T08:14:14.622Z,79.12
2022-11-08T08:15:14.612Z,76.51
2022-11-08T08:16:14.711Z,75.42
2022-11-08T08:17:14.589Z,73.73
2022-11-08T08:18:14.581Z,69.41
2022-11-08T08:19:14.552Z,70.09
2022-11-08T08:20:14.564Z,65.91
2022-11-08T08:21:14.521Z,65.17
2022-11-08T08:22:14.530Z,66.55
2022-11-08T08:23:14.619Z,66.79
2022-11-08T08:24:14.500Z,65.95
2022-11-08T08:25:14.470Z,66.16
2022-11-08T08:26:14.475Z,64.84
2022-11-08T08:27:14.442Z,66.08
2022-11-08T08:28:14.440Z,66.08
2022-11-08T08:29:14.421Z,65.65
2022-11-08T08:30:14.421Z,65.12
2022-11-08T08:31:14.391Z,63.75
2022-11-08T08:32:14.402Z,61.60
2022-11-08T08:33:27.941Z,59.74
2022-11-08T08:34:15.352Z,57.52
2022-11-08T08:35:14.345Z,58.40
2022-11-08T08:36:14.341Z,58.87
2022-11-08T08:37:14.311Z,58.31
2022-11-08T08:38:14.321Z,56.10
2022-11-08T08:39:14.292Z,57.21
2022-11-08T08:40:14.291Z,56.43
2022-11-08T08:41:14.251Z,58.57
2022-11-08T08:42:14.264Z,57.09
2022-11-08T08:43:14.245Z,59.33
2022-11-08T08:44:14.222Z,59.53
2022-11-08T08:45:15.241Z,59.26
2022-11-08T08:46:14.192Z,57.78
2022-11-08T08:47:14.171Z,59.01
2022-11-08T08:48:14.209Z,60.72
2022-11-08T08:49:14.159Z,60.15
2022-11-08T08:50:14.142Z,59.75
2022-11-08T08:51:14.123Z,61.25
2022-11-08T08:52:14.122Z,61.05
2022-11-08T08:53:14.102Z,61.18
2022-11-08T08:54:14.091Z,61.46
2022-11-08T08:55:14.076Z,61.03
2022-11-08T08:56:14.062Z,61.00
2022-11-08T08:57:14.042Z,61.10
2022-11-08T08:58:14.053Z,58.58
2022-11-08T09:02:14.973Z,60.21
2022-11-08T09:03:13.992Z,59.20
2022-11-08T09:04:13.953Z,56.96
2022-11-08T09:05:13.951Z,57.46
2022-11-08T09:06:13.931Z,57.34
2022-11-08T09:07:13.997Z,57.84
2022-11-08T09:08:13.913Z,57.81
2022-11-08T09:09:13.893Z,56.98
2022-11-08T09:10:13.883Z,56.65
2022-11-08T09:11:13.851Z,54.65
2022-11-08T09:12:14.828Z,54.32
2022-11-08T09:13:13.843Z,55.40
2022-11-08T09:14:13.823Z,56.27
2022-11-08T09:15:13.812Z,55.05
2022-11-08T09:16:13.812Z,53.92
2022-11-08T09:17:13.786Z,54.49
2022-11-08T09:18:13.920Z,53.09
2022-11-08T09:19:13.752Z,53.67
2022-11-08T09:20:13.750Z,52.04
2022-11-08T09:21:13.817Z,49.15
2022-11-08T09:22:13.800Z,50.54
2022-11-08T09:23:13.824Z,52.22
2022-11-08T09:24:13.695Z,51.32
2022-11-08T09:25:13.672Z,48.43
2022-11-08T09:26:13.665Z,48.22
2022-11-08T09:27:13.647Z,48.55
2022-11-08T09:28:13.652Z,48.85
2022-11-08T09:29:13.644Z,49.74
2022-11-08T09:30:13.614Z,47.75
2022-11-08T09:31:13.584Z,47.95
2022-11-08T09:32:13.586Z,49.07
2022-11-08T09:33:13.611Z,51.89
2022-11-08T09:34:15.187Z,51.42
2022-11-08T09:35:13.537Z,49.02
2022-11-08T09:36:13.532Z,50.22
2022-11-08T09:37:13.515Z,51.02
2022-11-08T09:38:13.503Z,51.94
2022-11-08T09:39:13.534Z,49.84
2022-11-08T09:40:13.528Z,51.64
2022-11-08T09:41:13.480Z,51.94
2022-11-08T09:42:13.465Z,53.12
2022-11-08T09:43:13.457Z,50.79
2022-11-08T09:44:13.426Z,51.09
2022-11-08T09:45:13.430Z,49.27
2022-11-08T09:46:13.395Z,50.07
2022-11-08T09:47:13.394Z,51.47
2022-11-08T09:48:13.375Z,52.87
2022-11-08T09:49:13.364Z,51.75
2022-11-08T09:50:13.344Z,50.74
2022-11-08T09:51:13.328Z,50.74
2022-11-08T09:52:13.325Z,49.65
2022-11-08T09:53:13.302Z,50.84
2022-11-08T09:54:17.106Z,50.72
2022-11-08T09:55:14.283Z,49.52
2022-11-08T09:56:13.265Z,50.72
2022-11-08T09:57:13.286Z,51.22
2022-11-08T09:58:13.236Z,50.02
2022-11-08T09:59:13.239Z,49.35
2022-11-08T10:00:13.207Z,49.97
2022-11-08T10:01:13.254Z,49.97
2022-11-08T10:02:13.246Z,49.57
2022-11-08T10:03:13.166Z,49.99
2022-11-08T10:04:13.171Z,49.49
2022-11-08T10:05:13.137Z,50.39
2022-11-08T10:06:13.136Z,48.29
2022-11-08T10:07:13.196Z,49.29
2022-11-08T10:08:13.108Z,50.79
2022-11-08T10:09:13.095Z,51.22
2022-11-08T10:10:13.105Z,51.50
2022-11-08T10:11:13.055Z,51.39
2022-11-08T10:12:13.046Z,50.20
2022-11-08T10:13:13.036Z,50.39
2022-11-08T10:14:13.018Z,49.72
2022-11-08T10:15:13.009Z,49.72
2022-11-08T10:16:12.999Z,50.92
2022-11-08T10:17:13.000Z,49.82
2022-11-08T10:18:12.957Z,49.54
2022-11-08T10:19:12.957Z,49.66
2022-11-08T10:20:12.957Z,51.37
2022-11-08T10:21:12.928Z,52.77
2022-11-08T10:22:12.931Z,51.07
2022-11-08T10:23:12.897Z,49.46
2022-11-08T10:24:12.893Z,51.49
2022-11-08T10:25:12.881Z,51.19
2022-11-08T10:26:12.909Z,52.19
2022-11-08T10:27:12.846Z,52.69
2022-11-08T10:28:12.838Z,51.17
2022-11-08T10:29:12.902Z,50.26
2022-11-08T10:30:12.798Z,50.96
2022-11-08T10:31:12.779Z,52.87
2022-11-08T10:32:12.798Z,54.57
2022-11-08T10:33:12.758Z,53.07
2022-11-08T10:34:12.757Z,52.77
2022-11-08T10:35:12.750Z,51.67
2022-11-08T10:36:12.728Z,49.79
2022-11-08T10:37:12.718Z,50.11
2022-11-08T10:38:12.706Z,50.51
2022-11-08T10:39:12.686Z,51.54
2022-11-08T10:40:12.670Z,53.87
2022-11-08T10:41:12.669Z,52.87
2022-11-08T10:42:12.657Z,53.87
2022-11-08T10:43:12.627Z,54.65
2022-11-08T10:44:12.620Z,54.95
2022-11-08T10:45:12.629Z,53.64
2022-11-08T10:46:12.598Z,52.55
2022-11-08T10:47:12.619Z,52.87
2022-11-08T10:48:12.568Z,53.87
2022-11-08T10:49:12.562Z,53.97
2022-11-08T10:50:12.541Z,53.47
2022-11-08T10:51:12.548Z,52.77
2022-11-08T10:52:12.549Z,53.87
2022-11-08T10:53:12.498Z,52.69
2022-11-08T10:54:12.489Z,52.69
2022-11-08T10:55:12.479Z,52.92
2022-11-08T10:56:12.471Z,54.53
2022-11-08T10:57:12.521Z,53.42
2022-11-08T10:58:12.427Z,55.83
2022-11-08T10:59:12.410Z,56.30
2022-11-08T11:00:12.469Z,55.00
2022-11-08T11:01:12.400Z,55.58
2022-11-08T11:02:12.459Z,56.38
2022-11-08T11:03:12.360Z,54.68
2022-11-08T11:04:12.340Z,55.47
2022-11-08T11:05:12.342Z,55.47
2022-11-08T11:06:12.309Z,55.18
2022-11-08T11:07:12.355Z,54.27
2022-11-08T11:08:12.310Z,53.80
2022-11-08T11:09:12.290Z,54.00
2022-11-08T11:10:12.279Z,53.32
2022-11-08T11:11:12.251Z,53.32
2022-11-08T11:12:12.241Z,54.33
2022-11-08T11:13:12.337Z,53.12
2022-11-08T11:14:16.168Z,53.82
2022-11-08T11:15:13.224Z,53.45
2022-11-08T11:16:12.190Z,53.75
2022-11-08T11:17:12.248Z,53.92
2022-11-08T11:18:12.159Z,55.03
2022-11-08T11:19:12.151Z,54.83
2022-11-08T11:20:12.131Z,53.92
2022-11-08T11:21:12.120Z,52.72
2022-11-08T11:22:12.124Z,53.42
2022-11-08T11:23:12.105Z,52.72
2022-11-08T11:24:14.375Z,54.02
2022-11-08T11:25:12.070Z,54.63
2022-11-08T11:26:12.084Z,53.80
2022-11-08T11:27:12.061Z,52.51
2022-11-08T11:28:12.032Z,52.42
2022-11-08T11:29:12.024Z,55.13
2022-11-08T11:30:12.102Z,53.22
2022-11-08T11:31:11.994Z,53.82
2022-11-08T11:32:11.991Z,54.43
2022-11-08T11:33:12.037Z,53.42
2022-11-08T11:34:11.961Z,55.33
2022-11-08T11:35:11.942Z,56.13
2022-11-08T11:36:13.669Z,55.60
2022-11-08T11:37:11.933Z,51.09
2022-11-08T11:38:11.894Z,54.02
2022-11-08T11:39:11.924Z,52.72
2022-11-08T11:40:11.872Z,51.42
2022-11-08T11:41:11.924Z,53.22
2022-11-08T11:42:39.036Z,55.03
2022-11-08T11:43:12.830Z,51.61
2022-11-08T11:44:11.814Z,53.95
2022-11-08T11:45:11.821Z,51.44
2022-11-08T11:46:11.792Z,52.64
2022-11-08T11:47:11.803Z,51.74
2022-11-08T11:48:11.762Z,53.14
2022-11-08T11:49:11.753Z,52.87
2022-11-08T11:50:11.734Z,51.56
2022-11-08T11:51:11.839Z,52.47
2022-11-08T11:52:11.712Z,51.59
2022-11-08T11:53:11.704Z,53.30
2022-11-08T11:54:11.693Z,52.89
2022-11-08T11:55:11.671Z,54.10
2022-11-08T11:56:11.661Z,53.60
2022-11-08T11:57:11.640Z,54.00
2022-11-08T11:58:11.642Z,54.68
2022-11-08T11:59:11.622Z,53.20
2022-11-08T12:00:11.612Z,54.00
2022-11-08T12:01:14.398Z,54.30
2022-11-08T12:02:11.620Z,53.20
2022-11-08T12:03:11.572Z,53.70
2022-11-08T12:04:11.562Z,54.20
2022-11-08T12:05:11.542Z,54.71
2022-11-08T12:06:11.532Z,53.32
2022-11-08T12:07:11.560Z,54.03
2022-11-08T12:08:11.495Z,55.66
2022-11-08T12:09:11.491Z,56.87
2022-11-08T12:10:11.461Z,53.95
2022-11-08T12:11:11.481Z,54.46
2022-11-08T12:12:11.441Z,55.19
2022-11-08T12:13:11.442Z,54.58
2022-11-08T12:14:11.412Z,54.99
2022-11-08T12:15:11.411Z,55.08
2022-11-08T12:16:11.400Z,56.20
2022-11-08T12:17:11.388Z,56.20
2022-11-08T12:18:11.361Z,54.71
2022-11-08T12:19:11.363Z,55.41
2022-11-08T12:20:11.332Z,57.03
2022-11-08T12:21:11.469Z,56.22
2022-11-08T12:22:11.302Z,57.73
2022-11-08T12:23:11.314Z,57.30
2022-11-08T12:24:11.284Z,57.40
2022-11-08T12:25:11.283Z,57.90
2022-11-08T12:26:11.312Z,58.01
2022-11-08T12:27:11.253Z,56.49
2022-11-08T12:28:11.227Z,57.40
2022-11-08T12:29:11.221Z,55.39
2022-11-08T12:30:11.203Z,57.70
2022-11-08T12:31:11.221Z,58.51
2022-11-08T12:32:11.173Z,58.11
2022-11-08T12:33:11.215Z,58.21
2022-11-08T12:34:11.146Z,55.99
2022-11-08T12:35:11.142Z,57.20
2022-11-08T12:36:11.142Z,58.51
2022-11-08T12:37:11.117Z,56.20
2022-11-08T12:38:11.105Z,56.09
2022-11-08T12:39:11.098Z,56.40
2022-11-08T12:40:11.077Z,57.50
2022-11-08T12:41:11.074Z,59.11
2022-11-08T12:42:11.051Z,59.82
2022-11-08T12:43:11.044Z,57.40
2022-11-08T12:44:11.032Z,55.29
2022-11-08T12:45:11.004Z,57.40
2022-11-08T12:46:10.993Z,56.80
2022-11-08T12:47:10.981Z,57.20
2022-11-08T12:48:10.971Z,57.60
2022-11-08T12:49:10.954Z,56.49
2022-11-08T12:50:10.923Z,55.08
2022-11-08T12:51:10.951Z,55.39
2022-11-08T12:52:10.914Z,58.31
2022-11-08T12:53:10.925Z,57.40
2022-11-08T12:54:10.884Z,56.60
2022-11-08T12:55:10.878Z,58.01